Frej — SBPT — position and weather

sailwx.info

Track history (hours):
 
Tides and Currents Weather Stations Pressure Air Temp Water Temp Dewpoint Dewpoint Depression Visibility Wind Speed Wind Dir Waves Ship Positions

Frej

Last reported at 2017-Apr-29 12:00 UTC. Time now 2017-Apr-29 13:36 UTC.
Position N 65°36' E 022°12'.

Length 108 m; draft 7.8 m.

Type: Other ship. MMSI: 265068000.

Wind from 050 at 6 knots

Barometer 1031.7 mb
Air temperature 4.2 ° C
Water temperature 0.9 ° C

Date/timePositionNaut miles runAvg speedWind from/ knotsBaromVisibWave heightAir tempDewpointWater temp
2017-Apr-29 12:00N 65°36' E 022°12'0 0.0 050 / 61031.7 4.2 0.9
2017-Apr-29 09:00N 65°36' E 022°12'0 0.0 020 / 41032.9 3.0 0.9
2017-Apr-29 06:00N 65°36' E 022°12'0 0.0 050 / 61032.8 -0.0 0.8
2017-Apr-29 03:00N 65°36' E 022°12'0 0.0 040 / 41032.1 -1.7 0.8
2017-Apr-29 00:00N 65°36' E 022°12'0 0.0 350 / 41031.4 -2.1 0.8
2017-Apr-28 21:00N 65°36' E 022°12'0 0.0 040 / 41030.7 0.3 0.9
2017-Apr-28 18:00N 65°36' E 022°12'0 0.0 130 / 41029.0 3.8 0.9
2017-Apr-28 15:00N 65°36' E 022°12'0 0.0 150 / 81027.9 4.1 0.9
2017-Apr-28 14:00N 65°36' E 022°12'0 0.0 150 / 101027.6 4.1 1.0
2017-Apr-28 12:00N 65°36' E 022°12'0 0.0 060 / 81026.8 3.9 0.9
2017-Apr-28 09:00N 65°36' E 022°12'0 0.0 010 / 121025.5 2.8 0.6
2017-Apr-28 06:00N 65°36' E 022°12'0 0.0 030 / 101023.1 0.6 0.9
2017-Apr-28 03:00N 65°36' E 022°12'0 0.0 340 / 81020.7 -1.4 0.9
2017-Apr-28 00:00N 65°36' E 022°12'0 0.0 350 / 81018.2 -1.0 0.9
2017-Apr-27 21:00N 65°36' E 022°12'0 0.0 010 / 101015.4 1.6 0.9
2017-Apr-27 18:00N 65°36' E 022°12'0 0.0 350 / 61012.2 4.4 0.9
2017-Apr-27 15:00N 65°36' E 022°12'0 0.0 350 / 61009.9 3.2 0.9
2017-Apr-27 12:00N 65°36' E 022°12'0 0.0 360 / 141007.4 1.8 0.9
2017-Apr-27 09:00N 65°36' E 022°12'0 0.0 010 / 81004.7 0.8 1.0
2017-Apr-27 06:00N 65°36' E 022°12'0 0.0 360 / 171002.0 -0.3 1.1
2017-Apr-27 03:00N 65°36' E 022°12'0 0.0 340 / 17100.0 -0.1 1.0
2017-Apr-27 00:00N 65°36' E 022°12'0 0.0 350 / 17998.4 1.4 0.9
2017-Apr-26 21:00N 65°36' E 022°12'0 0.0 340 / 21997.5 2.6 1.0
2017-Apr-26 18:00N 65°36' E 022°12'0 0.0 350 / 16997.3 1.0 1.1
2017-Apr-26 15:00N 65°36' E 022°12'0 0.0 997.4 0.6 0.8
2017-Apr-26 13:00N 65°36' E 022°12'0 0.0 020 / 27997.4 2.4 0.7
2017-Apr-26 12:00N 65°36' E 022°12'2512.5 030 / 21997.1 4.4 0.5
2017-Apr-26 10:00N 65°18' E 022°54'5 5.0 030 / 29995.9 1.0 0.4
2017-Apr-26 09:00N 65°18' E 023°06'7 6.5 040 / 27996.4 1.4 0.3
2017-Apr-26 08:00N 65°12' E 023°12'0 0.0 020 / 31997.1 0.5 0.3
2017-Apr-26 07:00N 65°12' E 023°12'0 0.0 020 / 23997.9 -0.0 0.4
2017-Apr-26 06:00N 65°12' E 023°12'6 6.0 030 / 23998.8 -0.5 0.4
2017-Apr-26 05:00N 65°18' E 023°12'0 0.0 020 / 27999.7 -1.0 0.3
2017-Apr-26 04:00N 65°18' E 023°12'0 0.0 040 / 271000.5 -1.0 0.3
2017-Apr-26 03:00N 65°18' E 023°12'0 0.0 040 / 211001.4 -0.9 0.8
2017-Apr-26 02:00N 65°18' E 023°12'0 0.0 050 / 191002.0 -0.4 0.8
2017-Apr-26 01:00N 65°18' E 023°12'3 2.5 050 / 171003.0 0.1 0.6
2017-Apr-26 00:00N 65°18' E 023°18'7 6.5 060 / 171004.9 0.8 0.3
2017-Apr-25 23:00N 65°12' E 023°12'1212.3 070 / 211005.1 1.3 0.3
2017-Apr-25 22:00N 65°00' E 023°18'3 2.5 070 / 231004.9 1.4 0.3
2017-Apr-25 21:00N 65°00' E 023°12'1211.8 070 / 191005.6 1.4 0.3
2017-Apr-25 20:00N 64°54' E 022°48'5 5.1 070 / 191005.7 1.7 0.7
2017-Apr-25 19:00N 64°54' E 022°36'3 2.5 060 / 191003.5 1.7 0.7
2017-Apr-25 18:00N 64°54' E 022°30'2512.6 070 / 191004.5 1.5 0.7
2017-Apr-25 16:00N 65°18' E 022°48'1414.1 070 / 211005.8 2.2 0.8
2017-Apr-25 15:00N 65°30' E 022°30'10 3.2 070 / 161007.1 4.9 1.4
2017-Apr-25 12:00N 65°36' E 022°12'0 0.0 090 / 101008.5 4.0 0.8
2017-Apr-25 10:00N 65°36' E 022°12'0 0.0 050 / 141008.6 2.1 0.8
2017-Apr-25 09:00N 65°36' E 022°12'0 0.0 050 / 81008.8 1.6 0.8
2017-Apr-25 08:00N 65°36' E 022°12'0 0.0 040 / 101008.7 1.1 0.8
2017-Apr-25 06:00N 65°36' E 022°12'0 0.0 070 / 61008.3 -0.1 0.7
2017-Apr-25 04:00N 65°36' E 022°12'0 0.0 060 / 81007.8 -1.0 0.7
2017-Apr-25 03:00N 65°36' E 022°12'0 0.0 020 / 41007.7 -1.3 0.7
2017-Apr-25 02:00N 65°36' E 022°12'0 0.0 020 / 61007.7 -1.1 0.7
2017-Apr-25 01:00N 65°36' E 022°12'0 0.0 1007.7 -1.3 0.7
2017-Apr-25 00:00N 65°36' E 022°12'0 0.0 050 / 21007.8 -1.3 0.7
2017-Apr-24 23:00N 65°36' E 022°12'0 0.0 360 / 21007.8 -1.9 0.8
2017-Apr-24 22:00N 65°36' E 022°12'0 0.0 020 / 21007.9 -2.1 0.8
2017-Apr-24 21:00N 65°36' E 022°12'0 0.0 300 / 21007.8 -2.3 0.8
2017-Apr-24 20:00N 65°36' E 022°12'0 0.0 180 / 41007.7 -2.9 0.8
2017-Apr-24 18:00N 65°36' E 022°12'0 0.0 190 / 21007.2 -2.2 0.8
2017-Apr-24 15:00N 65°36' E 022°12'0 0.0 070 / 41006.4 1.8 0.8
2017-Apr-24 12:00N 65°36' E 022°12'0 0.0 040 / 81006.1 0.7 0.9
2017-Apr-24 11:00N 65°36' E 022°12'0 0.0 070 / 41006.0 0.7 0.9
2017-Apr-24 09:00N 65°36' E 022°12'0 0.0 060 / 61005.3 -0.2 0.9
2017-Apr-24 06:00N 65°36' E 022°12'0 0.0 090 / 101004.2 -1.0 0.9
2017-Apr-24 03:00N 65°36' E 022°12'0 0.0 070 / 61003.3 -1.0 0.9
2017-Apr-24 02:00N 65°36' E 022°12'0 0.0 060 / 61003.4 -1.4 0.9
2017-Apr-24 01:00N 65°36' E 022°12'0 0.0 040 / 41003.6 -1.9 0.9
2017-Apr-24 00:00N 65°36' E 022°12'0 0.0 050 / 21003.7 -2.6 0.8
2017-Apr-23 22:00N 65°36' E 022°12'0 0.0 070 / 41003.5 -3.9 0.8
2017-Apr-23 21:00N 65°36' E 022°12'0 0.0 050 / 81003.1 -3.3 0.9
2017-Apr-23 19:00N 65°36' E 022°12'0 0.0 050 / 21002.9 -2.4 0.8
2017-Apr-23 18:00N 65°36' E 022°12'0 0.0 140 / 21002.8 -1.8 0.7
2017-Apr-23 17:00N 65°36' E 022°12'0 0.0 150 / 41002.3 -0.8 0.8
2017-Apr-23 16:00N 65°36' E 022°12'0 0.0 150 / 81002.0 -0.4 0.8
2017-Apr-23 15:00N 65°36' E 022°12'0 0.0 150 / 61001.7 1.5 0.8
2017-Apr-23 13:00N 65°36' E 022°12'0 0.0 100 / 21001.2 2.3 0.8
2017-Apr-23 12:00N 65°36' E 022°12'0 0.0 070 1001.1 1.7 0.8
2017-Apr-23 11:00N 65°36' E 022°12'0 0.0 040 / 81000.8 0.4 0.8
2017-Apr-23 10:00N 65°36' E 022°12'0 0.0 080 / 81000.5 0.3 0.8
2017-Apr-23 09:00N 65°36' E 022°12'0 0.0 030 / 61000.0 0.1 0.7
2017-Apr-23 06:00N 65°36' E 022°12'0 0.0 290 / 4998.6 -0.3 0.8
2017-Apr-23 03:00N 65°36' E 022°12'0 0.0 320 / 4997.9 -2.3 0.8
2017-Apr-23 00:00N 65°36' E 022°12'0 0.0 330 / 2997.9 -1.2 0.8
2017-Apr-22 21:00N 65°36' E 022°12'0 0.0 290 / 4997.9 0.7 0.8
2017-Apr-22 18:00N 65°36' E 022°12'0 0.0 310 / 8997.8 3.7 0.8
2017-Apr-22 15:00N 65°36' E 022°12'0 0.0 310 / 16997.3 3.9 0.7
2017-Apr-22 12:00N 65°36' E 022°12'0 0.0 340 / 12996.9 4.2 0.7
2017-Apr-22 10:00N 65°36' E 022°12'0 0.0 996.0 4.3 0.7
2017-Apr-22 09:00N 65°36' E 022°12'0 0.0 330 / 16995.9 2.8 0.7
2017-Apr-22 06:00N 65°36' E 022°12'0 0.0 350 / 16993.2 1.0 0.7
2017-Apr-22 04:00N 65°36' E 022°12'0 0.0 350 / 14991.5 0.5 0.7
2017-Apr-22 03:00N 65°36' E 022°12'0 0.0 030 / 16990.3 -0.1 0.7
2017-Apr-22 00:00N 65°36' E 022°12'0 0.0 030 / 10987.4 0.8 0.8
2017-Apr-21 22:00N 65°36' E 022°12'0 0.0 040 / 8985.2 -0.5 0.8
2017-Apr-21 21:00N 65°36' E 022°12'0 0.0 020 / 8984.7 -0.3 0.8
2017-Apr-21 19:00N 65°36' E 022°12'0 0.0 250 / 4983.7 3.6 0.8
2017-Apr-21 18:00N 65°36' E 022°12'0 0.0 180 / 10983.4 4.1 0.8
2017-Apr-21 17:00N 65°36' E 022°12'0 0.0 180 / 10983.4 5.0 0.7
2017-Apr-21 16:00N 65°36' E 022°12'0 0.0 180 / 12983.7 4.6 0.7
2017-Apr-21 15:00N 65°36' E 022°12'0 0.0 180 / 14984.0 4.7 0.8
2017-Apr-21 12:00N 65°36' E 022°12'0 0.0 170 / 14985.9 2.9 0.7
2017-Apr-21 11:00N 65°36' E 022°12'0 0.0 250 / 10986.7 3.3 0.7
2017-Apr-21 09:00N 65°36' E 022°12'0 0.0 190 / 16987.4 3.2 0.8
2017-Apr-21 06:00N 65°36' E 022°12'0 0.0 180 / 10989.0 1.1 0.8
2017-Apr-21 03:00N 65°36' E 022°12'0 0.0 180 / 4991.1 -1.0 0.8
2017-Apr-21 01:00N 65°36' E 022°12'0 0.0 220 / 6992.6 0.4 0.8
2017-Apr-21 00:00N 65°36' E 022°12'0 0.0 210 / 10993.5 0.9 0.8
2017-Apr-20 21:00N 65°36' E 022°12'0 0.0 220 / 6996.7 2.6 0.8
2017-Apr-20 18:00N 65°36' E 022°12'0 0.0 180 / 10998.5 1.4 0.8
2017-Apr-20 17:00N 65°36' E 022°12'0 0.0 190 / 10999.1 2.5 0.8
2017-Apr-20 16:00N 65°36' E 022°12'0 0.0 190 / 10999.8 2.7 0.8
2017-Apr-20 15:00N 65°36' E 022°12'0 0.0 190 / 121000.3 2.7 0.8
2017-Apr-20 12:00N 65°36' E 022°12'0 0.0 200 / 251003.1 0.2 0.8
2017-Apr-20 09:00N 65°36' E 022°12'0 0.0 190 / 211008.0 1.0 0.9
2017-Apr-20 06:00N 65°36' E 022°12'0 0.0 180 / 121012.7 -0.2 0.9
2017-Apr-20 03:00N 65°36' E 022°12'0 0.0 180 / 161016.3 -0.9 0.9
2017-Apr-20 01:00N 65°36' E 022°12'0 0.0 180 / 121018.8 -1.4 0.9
2017-Apr-20 00:00N 65°36' E 022°12'0 0.0 180 / 161020.1 -1.0 0.9
2017-Apr-19 21:00N 65°36' E 022°12'0 0.0 200 / 101022.2 0.3 1.0
2017-Apr-19 18:00N 65°36' E 022°12'0 0.0 190 / 141023.5 1.6 1.0
2017-Apr-19 15:00N 65°36' E 022°12'0 0.0 180 / 141025.5 1.8 1.0
2017-Apr-19 12:00N 65°36' E 022°12'   180 / 141027.1 1.9 1.0
Track history (hours):
 
Tides and Currents Weather Stations Pressure Air Temp Water Temp Dewpoint Dewpoint Depression Visibility Wind Speed Wind Dir Waves Ship Positions

Frej

Last reported at 2017-Apr-29 12:00 UTC. Time now 2017-Apr-29 13:36 UTC.
Position N 65°36' E 022°12'.

Length 108 m; draft 7.8 m.

Type: Other ship. MMSI: 265068000.

Wind from 050 at 6 knots

Barometer 1031.7 mb
Air temperature 4.2 ° C
Water temperature 0.9 ° C

Date/timePositionNaut miles runAvg speedWind from/ knotsBaromVisibWave heightAir tempDewpointWater temp
2017-Apr-29 12:00N 65°36' E 022°12'0 0.0 050 / 61031.7 4.2 0.9
2017-Apr-29 09:00N 65°36' E 022°12'0 0.0 020 / 41032.9 3.0 0.9
2017-Apr-29 06:00N 65°36' E 022°12'0 0.0 050 / 61032.8 -0.0 0.8
2017-Apr-29 03:00N 65°36' E 022°12'0 0.0 040 / 41032.1 -1.7 0.8
2017-Apr-29 00:00N 65°36' E 022°12'0 0.0 350 / 41031.4 -2.1 0.8
2017-Apr-28 21:00N 65°36' E 022°12'0 0.0 040 / 41030.7 0.3 0.9
2017-Apr-28 18:00N 65°36' E 022°12'0 0.0 130 / 41029.0 3.8 0.9
2017-Apr-28 15:00N 65°36' E 022°12'0 0.0 150 / 81027.9 4.1 0.9
2017-Apr-28 14:00N 65°36' E 022°12'0 0.0 150 / 101027.6 4.1 1.0
2017-Apr-28 12:00N 65°36' E 022°12'0 0.0 060 / 81026.8 3.9 0.9
2017-Apr-28 09:00N 65°36' E 022°12'0 0.0 010 / 121025.5 2.8 0.6
2017-Apr-28 06:00N 65°36' E 022°12'0 0.0 030 / 101023.1 0.6 0.9
2017-Apr-28 03:00N 65°36' E 022°12'0 0.0 340 / 81020.7 -1.4 0.9
2017-Apr-28 00:00N 65°36' E 022°12'0 0.0 350 / 81018.2 -1.0 0.9
2017-Apr-27 21:00N 65°36' E 022°12'0 0.0 010 / 101015.4 1.6 0.9
2017-Apr-27 18:00N 65°36' E 022°12'0 0.0 350 / 61012.2 4.4 0.9
2017-Apr-27 15:00N 65°36' E 022°12'0 0.0 350 / 61009.9 3.2 0.9
2017-Apr-27 12:00N 65°36' E 022°12'0 0.0 360 / 141007.4 1.8 0.9
2017-Apr-27 09:00N 65°36' E 022°12'0 0.0 010 / 81004.7 0.8 1.0
2017-Apr-27 06:00N 65°36' E 022°12'0 0.0 360 / 171002.0 -0.3 1.1
2017-Apr-27 03:00N 65°36' E 022°12'0 0.0 340 / 17100.0 -0.1 1.0
2017-Apr-27 00:00N 65°36' E 022°12'0 0.0 350 / 17998.4 1.4 0.9
2017-Apr-26 21:00N 65°36' E 022°12'0 0.0 340 / 21997.5 2.6 1.0
2017-Apr-26 18:00N 65°36' E 022°12'0 0.0 350 / 16997.3 1.0 1.1
2017-Apr-26 15:00N 65°36' E 022°12'0 0.0 997.4 0.6 0.8
2017-Apr-26 13:00N 65°36' E 022°12'0 0.0 020 / 27997.4 2.4 0.7
2017-Apr-26 12:00N 65°36' E 022°12'2512.5 030 / 21997.1 4.4 0.5
2017-Apr-26 10:00N 65°18' E 022°54'5 5.0 030 / 29995.9 1.0 0.4
2017-Apr-26 09:00N 65°18' E 023°06'7 6.5 040 / 27996.4 1.4 0.3
2017-Apr-26 08:00N 65°12' E 023°12'0 0.0 020 / 31997.1 0.5 0.3
2017-Apr-26 07:00N 65°12' E 023°12'0 0.0 020 / 23997.9 -0.0 0.4
2017-Apr-26 06:00N 65°12' E 023°12'6 6.0 030 / 23998.8 -0.5 0.4
2017-Apr-26 05:00N 65°18' E 023°12'0 0.0 020 / 27999.7 -1.0 0.3
2017-Apr-26 04:00N 65°18' E 023°12'0 0.0 040 / 271000.5 -1.0 0.3
2017-Apr-26 03:00N 65°18' E 023°12'0 0.0 040 / 211001.4 -0.9 0.8
2017-Apr-26 02:00N 65°18' E 023°12'0 0.0 050 / 191002.0 -0.4 0.8
2017-Apr-26 01:00N 65°18' E 023°12'3 2.5 050 / 171003.0 0.1 0.6
2017-Apr-26 00:00N 65°18' E 023°18'7 6.5 060 / 171004.9 0.8 0.3
2017-Apr-25 23:00N 65°12' E 023°12'1212.3 070 / 211005.1 1.3 0.3
2017-Apr-25 22:00N 65°00' E 023°18'3 2.5 070 / 231004.9 1.4 0.3
2017-Apr-25 21:00N 65°00' E 023°12'1211.8 070 / 191005.6 1.4 0.3
2017-Apr-25 20:00N 64°54' E 022°48'5 5.1 070 / 191005.7 1.7 0.7
2017-Apr-25 19:00N 64°54' E 022°36'3 2.5 060 / 191003.5 1.7 0.7
2017-Apr-25 18:00N 64°54' E 022°30'2512.6 070 / 191004.5 1.5 0.7
2017-Apr-25 16:00N 65°18' E 022°48'1414.1 070 / 211005.8 2.2 0.8
2017-Apr-25 15:00N 65°30' E 022°30'10 3.2 070 / 161007.1 4.9 1.4
2017-Apr-25 12:00N 65°36' E 022°12'0 0.0 090 / 101008.5 4.0 0.8
2017-Apr-25 10:00N 65°36' E 022°12'0 0.0 050 / 141008.6 2.1 0.8
2017-Apr-25 09:00N 65°36' E 022°12'0 0.0 050 / 81008.8 1.6 0.8
2017-Apr-25 08:00N 65°36' E 022°12'0 0.0 040 / 101008.7 1.1 0.8
2017-Apr-25 06:00N 65°36' E 022°12'0 0.0 070 / 61008.3 -0.1 0.7
2017-Apr-25 04:00N 65°36' E 022°12'0 0.0 060 / 81007.8 -1.0 0.7
2017-Apr-25 03:00N 65°36' E 022°12'0 0.0 020 / 41007.7 -1.3 0.7
2017-Apr-25 02:00N 65°36' E 022°12'0 0.0 020 / 61007.7 -1.1 0.7
2017-Apr-25 01:00N 65°36' E 022°12'0 0.0 1007.7 -1.3 0.7
2017-Apr-25 00:00N 65°36' E 022°12'0 0.0 050 / 21007.8 -1.3 0.7
2017-Apr-24 23:00N 65°36' E 022°12'0 0.0 360 / 21007.8 -1.9 0.8
2017-Apr-24 22:00N 65°36' E 022°12'0 0.0 020 / 21007.9 -2.1 0.8
2017-Apr-24 21:00N 65°36' E 022°12'0 0.0 300 / 21007.8 -2.3 0.8
2017-Apr-24 20:00N 65°36' E 022°12'0 0.0 180 / 41007.7 -2.9 0.8
2017-Apr-24 18:00N 65°36' E 022°12'0 0.0 190 / 21007.2 -2.2 0.8
2017-Apr-24 15:00N 65°36' E 022°12'0 0.0 070 / 41006.4 1.8 0.8
2017-Apr-24 12:00N 65°36' E 022°12'0 0.0 040 / 81006.1 0.7 0.9
2017-Apr-24 11:00N 65°36' E 022°12'0 0.0 070 / 41006.0 0.7 0.9
2017-Apr-24 09:00N 65°36' E 022°12'0 0.0 060 / 61005.3 -0.2 0.9
2017-Apr-24 06:00N 65°36' E 022°12'0 0.0 090 / 101004.2 -1.0 0.9
2017-Apr-24 03:00N 65°36' E 022°12'0 0.0 070 / 61003.3 -1.0 0.9
2017-Apr-24 02:00N 65°36' E 022°12'0 0.0 060 / 61003.4 -1.4 0.9
2017-Apr-24 01:00N 65°36' E 022°12'0 0.0 040 / 41003.6 -1.9 0.9
2017-Apr-24 00:00N 65°36' E 022°12'0 0.0 050 / 21003.7 -2.6 0.8
2017-Apr-23 22:00N 65°36' E 022°12'0 0.0 070 / 41003.5 -3.9 0.8
2017-Apr-23 21:00N 65°36' E 022°12'0 0.0 050 / 81003.1 -3.3 0.9
2017-Apr-23 19:00N 65°36' E 022°12'0 0.0 050 / 21002.9 -2.4 0.8
2017-Apr-23 18:00N 65°36' E 022°12'0 0.0 140 / 21002.8 -1.8 0.7
2017-Apr-23 17:00N 65°36' E 022°12'0 0.0 150 / 41002.3 -0.8 0.8
2017-Apr-23 16:00N 65°36' E 022°12'0 0.0 150 / 81002.0 -0.4 0.8
2017-Apr-23 15:00N 65°36' E 022°12'0 0.0 150 / 61001.7 1.5 0.8
2017-Apr-23 13:00N 65°36' E 022°12'0 0.0 100 / 21001.2 2.3 0.8
2017-Apr-23 12:00N 65°36' E 022°12'0 0.0 070 1001.1 1.7 0.8
2017-Apr-23 11:00N 65°36' E 022°12'0 0.0 040 / 81000.8 0.4 0.8
2017-Apr-23 10:00N 65°36' E 022°12'0 0.0 080 / 81000.5 0.3 0.8
2017-Apr-23 09:00N 65°36' E 022°12'0 0.0 030 / 61000.0 0.1 0.7
2017-Apr-23 06:00N 65°36' E 022°12'0 0.0 290 / 4998.6 -0.3 0.8
2017-Apr-23 03:00N 65°36' E 022°12'0 0.0 320 / 4997.9 -2.3 0.8
2017-Apr-23 00:00N 65°36' E 022°12'0 0.0 330 / 2997.9 -1.2 0.8
2017-Apr-22 21:00N 65°36' E 022°12'0 0.0 290 / 4997.9 0.7 0.8
2017-Apr-22 18:00N 65°36' E 022°12'0 0.0 310 / 8997.8 3.7 0.8
2017-Apr-22 15:00N 65°36' E 022°12'0 0.0 310 / 16997.3 3.9 0.7
2017-Apr-22 12:00N 65°36' E 022°12'0 0.0 340 / 12996.9 4.2 0.7
2017-Apr-22 10:00N 65°36' E 022°12'0 0.0 996.0 4.3 0.7
2017-Apr-22 09:00N 65°36' E 022°12'0 0.0 330 / 16995.9 2.8 0.7
2017-Apr-22 06:00N 65°36' E 022°12'0 0.0 350 / 16993.2 1.0 0.7
2017-Apr-22 04:00N 65°36' E 022°12'0 0.0 350 / 14991.5 0.5 0.7
2017-Apr-22 03:00N 65°36' E 022°12'0 0.0 030 / 16990.3 -0.1 0.7
2017-Apr-22 00:00N 65°36' E 022°12'0 0.0 030 / 10987.4 0.8 0.8
2017-Apr-21 22:00N 65°36' E 022°12'0 0.0 040 / 8985.2 -0.5 0.8
2017-Apr-21 21:00N 65°36' E 022°12'0 0.0 020 / 8984.7 -0.3 0.8
2017-Apr-21 19:00N 65°36' E 022°12'0 0.0 250 / 4983.7 3.6 0.8
2017-Apr-21 18:00N 65°36' E 022°12'0 0.0 180 / 10983.4 4.1 0.8
2017-Apr-21 17:00N 65°36' E 022°12'0 0.0 180 / 10983.4 5.0 0.7
2017-Apr-21 16:00N 65°36' E 022°12'0 0.0 180 / 12983.7 4.6 0.7
2017-Apr-21 15:00N 65°36' E 022°12'0 0.0 180 / 14984.0 4.7 0.8
2017-Apr-21 12:00N 65°36' E 022°12'0 0.0 170 / 14985.9 2.9 0.7
2017-Apr-21 11:00N 65°36' E 022°12'0 0.0 250 / 10986.7 3.3 0.7
2017-Apr-21 09:00N 65°36' E 022°12'0 0.0 190 / 16987.4 3.2 0.8
2017-Apr-21 06:00N 65°36' E 022°12'0 0.0 180 / 10989.0 1.1 0.8
2017-Apr-21 03:00N 65°36' E 022°12'0 0.0 180 / 4991.1 -1.0 0.8
2017-Apr-21 01:00N 65°36' E 022°12'0 0.0 220 / 6992.6 0.4 0.8
2017-Apr-21 00:00N 65°36' E 022°12'0 0.0 210 / 10993.5 0.9 0.8
2017-Apr-20 21:00N 65°36' E 022°12'0 0.0 220 / 6996.7 2.6 0.8
2017-Apr-20 18:00N 65°36' E 022°12'0 0.0 180 / 10998.5 1.4 0.8
2017-Apr-20 17:00N 65°36' E 022°12'0 0.0 190 / 10999.1 2.5 0.8
2017-Apr-20 16:00N 65°36' E 022°12'0 0.0 190 / 10999.8 2.7 0.8
2017-Apr-20 15:00N 65°36' E 022°12'0 0.0 190 / 121000.3 2.7 0.8
2017-Apr-20 12:00N 65°36' E 022°12'0 0.0 200 / 251003.1 0.2 0.8
2017-Apr-20 09:00N 65°36' E 022°12'0 0.0 190 / 211008.0 1.0 0.9
2017-Apr-20 06:00N 65°36' E 022°12'0 0.0 180 / 121012.7 -0.2 0.9
2017-Apr-20 03:00N 65°36' E 022°12'0 0.0 180 / 161016.3 -0.9 0.9
2017-Apr-20 01:00N 65°36' E 022°12'0 0.0 180 / 121018.8 -1.4 0.9
2017-Apr-20 00:00N 65°36' E 022°12'0 0.0 180 / 161020.1 -1.0 0.9
2017-Apr-19 21:00N 65°36' E 022°12'0 0.0 200 / 101022.2 0.3 1.0
2017-Apr-19 18:00N 65°36' E 022°12'0 0.0 190 / 141023.5 1.6 1.0
2017-Apr-19 15:00N 65°36' E 022°12'0 0.0 180 / 141025.5 1.8 1.0
2017-Apr-19 12:00N 65°36' E 022°12'   180 / 141027.1 1.9 1.0

Dump ship's entire track history